Terminal Aerodrome Forecast
Issued by NWS

Home | Current Version | Previous Version | Text Only | Print | Product List | Glossary On
Versions: 1 2 3 4 5 6 7 8 9 10 11 12 13 14 15 16 17 18 19 20
000
FTUS46 KSEW 201720
TAFBFI
TAF
KBFI 201720Z 2018/2118 VRB05KT P6SM FEW070 SCT120 BKN200
     FM202100 04007KT P6SM VCSH SCT050 OVC080
     FM210200 10007KT P6SM VCSH SCT030 BKN050 OVC080
     FM211200 12005KT P6SM BKN040=

USA.gov is the U.S. government's official web portal to all federal, state and local government web resources and services.